sensor_id;sensor_type;location;lat;lon;timestamp;P1;durP1;ratioP1;P2;durP2;ratioP2
6007;SDS011;3032;49.484;11.112;2023-05-15T00:01:37;11.20;;;10.10;;
6007;SDS011;3032;49.484;11.112;2023-05-15T00:04:03;13.23;;;11.03;;
6007;SDS011;3032;49.484;11.112;2023-05-15T00:06:29;12.33;;;10.00;;
6007;SDS011;3032;49.484;11.112;2023-05-15T00:08:54;12.97;;;10.30;;
6007;SDS011;3032;49.484;11.112;2023-05-15T00:11:20;10.90;;;9.80;;
6007;SDS011;3032;49.484;11.112;2023-05-15T00:13:47;14.82;;;11.07;;
6007;SDS011;3032;49.484;11.112;2023-05-15T00:16:13;12.18;;;11.07;;
6007;SDS011;3032;49.484;11.112;2023-05-15T00:18:39;13.13;;;11.20;;
6007;SDS011;3032;49.484;11.112;2023-05-15T00:21:05;11.10;;;10.00;;
6007;SDS011;3032;49.484;11.112;2023-05-15T00:23:30;11.30;;;10.30;;
6007;SDS011;3032;49.484;11.112;2023-05-15T00:25:56;10.63;;;9.50;;
6007;SDS011;3032;49.484;11.112;2023-05-15T00:28:21;12.63;;;10.70;;
6007;SDS011;3032;49.484;11.112;2023-05-15T00:30:47;12.47;;;11.27;;
6007;SDS011;3032;49.484;11.112;2023-05-15T00:33:12;12.97;;;11.17;;
6007;SDS011;3032;49.484;11.112;2023-05-15T00:35:38;14.70;;;10.80;;
6007;SDS011;3032;49.484;11.112;2023-05-15T00:38:03;12.97;;;11.00;;
6007;SDS011;3032;49.484;11.112;2023-05-15T00:40:29;11.83;;;10.63;;
6007;SDS011;3032;49.484;11.112;2023-05-15T00:42:55;13.10;;;11.00;;
6007;SDS011;3032;49.484;11.112;2023-05-15T00:45:22;13.77;;;12.30;;
6007;SDS011;3032;49.484;11.112;2023-05-15T00:47:49;12.32;;;10.95;;
6007;SDS011;3032;49.484;11.112;2023-05-15T00:50:15;11.85;;;10.65;;
6007;SDS011;3032;49.484;11.112;2023-05-15T00:52:41;11.17;;;9.80;;
6007;SDS011;3032;49.484;11.112;2023-05-15T00:55:07;12.30;;;11.10;;
6007;SDS011;3032;49.484;11.112;2023-05-15T00:57:33;12.63;;;11.30;;
6007;SDS011;3032;49.484;11.112;2023-05-15T01:00:02;13.00;;;11.43;;
6007;SDS011;3032;49.484;11.112;2023-05-15T01:02:34;11.70;;;10.60;;
6007;SDS011;3032;49.484;11.112;2023-05-15T01:05:03;12.70;;;10.23;;
6007;SDS011;3032;49.484;11.112;2023-05-15T01:07:32;12.10;;;10.30;;
6007;SDS011;3032;49.484;11.112;2023-05-15T01:10:02;13.15;;;10.50;;
6007;SDS011;3032;49.484;11.112;2023-05-15T01:12:30;11.48;;;10.25;;
6007;SDS011;3032;49.484;11.112;2023-05-15T01:14:56;12.18;;;10.25;;
6007;SDS011;3032;49.484;11.112;2023-05-15T01:17:22;12.10;;;10.53;;
6007;SDS011;3032;49.484;11.112;2023-05-15T01:19:48;12.63;;;9.83;;
6007;SDS011;3032;49.484;11.112;2023-05-15T01:25:08;12.32;;;10.82;;
6007;SDS011;3032;49.484;11.112;2023-05-15T01:27:47;10.90;;;9.73;;
6007;SDS011;3032;49.484;11.112;2023-05-15T01:30:29;10.63;;;9.60;;
6007;SDS011;3032;49.484;11.112;2023-05-15T01:33:18;12.07;;;10.77;;
6007;SDS011;3032;49.484;11.112;2023-05-15T01:36:00;11.93;;;10.70;;
6007;SDS011;3032;49.484;11.112;2023-05-15T01:41:15;12.07;;;10.85;;
6007;SDS011;3032;49.484;11.112;2023-05-15T01:43:55;11.15;;;10.00;;
6007;SDS011;3032;49.484;11.112;2023-05-15T01:46:24;12.23;;;11.02;;
6007;SDS011;3032;49.484;11.112;2023-05-15T01:48:53;11.90;;;10.70;;
6007;SDS011;3032;49.484;11.112;2023-05-15T01:51:20;12.48;;;10.57;;
6007;SDS011;3032;49.484;11.112;2023-05-15T01:53:47;17.45;;;11.45;;
6007;SDS011;3032;49.484;11.112;2023-05-15T01:56:13;12.33;;;11.13;;
6007;SDS011;3032;49.484;11.112;2023-05-15T01:58:39;12.50;;;11.20;;
6007;SDS011;3032;49.484;11.112;2023-05-15T02:01:06;11.68;;;10.48;;
6007;SDS011;3032;49.484;11.112;2023-05-15T02:03:34;11.63;;;10.43;;
6007;SDS011;3032;49.484;11.112;2023-05-15T02:06:01;12.23;;;11.00;;
6007;SDS011;3032;49.484;11.112;2023-05-15T02:08:28;11.05;;;9.80;;
6007;SDS011;3032;49.484;11.112;2023-05-15T02:10:55;11.90;;;10.70;;
6007;SDS011;3032;49.484;11.112;2023-05-15T02:13:23;13.70;;;11.55;;
6007;SDS011;3032;49.484;11.112;2023-05-15T02:15:50;11.77;;;10.65;;
6007;SDS011;3032;49.484;11.112;2023-05-15T02:18:16;11.15;;;10.10;;
6007;SDS011;3032;49.484;11.112;2023-05-15T02:20:42;13.27;;;11.37;;
6007;SDS011;3032;49.484;11.112;2023-05-15T02:23:08;13.60;;;11.27;;
6007;SDS011;3032;49.484;11.112;2023-05-15T02:25:37;14.00;;;11.77;;
6007;SDS011;3032;49.484;11.112;2023-05-15T02:28:21;12.82;;;10.43;;
6007;SDS011;3032;49.484;11.112;2023-05-15T02:30:56;12.13;;;10.35;;
6007;SDS011;3032;49.484;11.112;2023-05-15T02:36:04;12.05;;;10.85;;
6007;SDS011;3032;49.484;11.112;2023-05-15T02:38:34;14.07;;;11.05;;
6007;SDS011;3032;49.484;11.112;2023-05-15T02:41:14;11.70;;;10.50;;
6007;SDS011;3032;49.484;11.112;2023-05-15T02:43:41;14.25;;;10.90;;
6007;SDS011;3032;49.484;11.112;2023-05-15T02:46:07;14.00;;;12.60;;
6007;SDS011;3032;49.484;11.112;2023-05-15T02:48:34;15.45;;;10.68;;
6007;SDS011;3032;49.484;11.112;2023-05-15T02:51:03;11.95;;;10.75;;
6007;SDS011;3032;49.484;11.112;2023-05-15T02:53:30;10.82;;;9.73;;
6007;SDS011;3032;49.484;11.112;2023-05-15T02:55:57;11.55;;;10.35;;
6007;SDS011;3032;49.484;11.112;2023-05-15T02:58:22;16.53;;;10.70;;
6007;SDS011;3032;49.484;11.112;2023-05-15T03:00:48;13.40;;;11.87;;
6007;SDS011;3032;49.484;11.112;2023-05-15T03:03:13;12.63;;;11.30;;
6007;SDS011;3032;49.484;11.112;2023-05-15T03:05:39;14.73;;;12.47;;
6007;SDS011;3032;49.484;11.112;2023-05-15T03:08:05;13.03;;;11.63;;
6007;SDS011;3032;49.484;11.112;2023-05-15T03:10:30;17.00;;;11.30;;
6007;SDS011;3032;49.484;11.112;2023-05-15T03:12:56;11.50;;;10.40;;
6007;SDS011;3032;49.484;11.112;2023-05-15T03:15:24;15.02;;;12.02;;
6007;SDS011;3032;49.484;11.112;2023-05-15T03:17:50;12.83;;;11.23;;
6007;SDS011;3032;49.484;11.112;2023-05-15T03:20:15;14.50;;;11.93;;
6007;SDS011;3032;49.484;11.112;2023-05-15T03:22:41;11.32;;;10.10;;
6007;SDS011;3032;49.484;11.112;2023-05-15T03:25:09;16.93;;;11.23;;
6007;SDS011;3032;49.484;11.112;2023-05-15T03:27:35;11.75;;;10.55;;
6007;SDS011;3032;49.484;11.112;2023-05-15T03:30:01;9.67;;;8.70;;
6007;SDS011;3032;49.484;11.112;2023-05-15T03:32:27;11.00;;;9.90;;
6007;SDS011;3032;49.484;11.112;2023-05-15T03:34:52;12.33;;;10.70;;
6007;SDS011;3032;49.484;11.112;2023-05-15T03:37:18;12.37;;;11.07;;
6007;SDS011;3032;49.484;11.112;2023-05-15T03:39:43;12.60;;;10.20;;
6007;SDS011;3032;49.484;11.112;2023-05-15T03:42:09;15.60;;;11.00;;
6007;SDS011;3032;49.484;11.112;2023-05-15T03:44:35;15.03;;;11.70;;
6007;SDS011;3032;49.484;11.112;2023-05-15T03:47:00;12.43;;;10.77;;
6007;SDS011;3032;49.484;11.112;2023-05-15T03:49:26;12.10;;;10.63;;
6007;SDS011;3032;49.484;11.112;2023-05-15T03:51:51;12.90;;;10.93;;
6007;SDS011;3032;49.484;11.112;2023-05-15T03:54:17;13.30;;;11.03;;
6007;SDS011;3032;49.484;11.112;2023-05-15T03:56:43;13.57;;;11.47;;
6007;SDS011;3032;49.484;11.112;2023-05-15T03:59:08;13.50;;;11.50;;
6007;SDS011;3032;49.484;11.112;2023-05-15T04:01:34;11.97;;;10.67;;
6007;SDS011;3032;49.484;11.112;2023-05-15T04:03:59;11.80;;;10.40;;
6007;SDS011;3032;49.484;11.112;2023-05-15T04:06:25;17.33;;;12.00;;
6007;SDS011;3032;49.484;11.112;2023-05-15T04:08:50;18.00;;;11.30;;
6007;SDS011;3032;49.484;11.112;2023-05-15T04:11:16;12.83;;;10.60;;
6007;SDS011;3032;49.484;11.112;2023-05-15T04:13:42;11.33;;;10.13;;
6007;SDS011;3032;49.484;11.112;2023-05-15T04:16:07;13.10;;;11.53;;
6007;SDS011;3032;49.484;11.112;2023-05-15T04:18:33;10.27;;;9.05;;
6007;SDS011;3032;49.484;11.112;2023-05-15T04:20:59;10.97;;;9.70;;
6007;SDS011;3032;49.484;11.112;2023-05-15T04:23:25;11.70;;;10.30;;
6007;SDS011;3032;49.484;11.112;2023-05-15T04:25:50;14.70;;;10.17;;
6007;SDS011;3032;49.484;11.112;2023-05-15T04:28:17;11.20;;;10.10;;
6007;SDS011;3032;49.484;11.112;2023-05-15T04:30:45;11.60;;;10.05;;
6007;SDS011;3032;49.484;11.112;2023-05-15T04:33:11;13.10;;;10.87;;
6007;SDS011;3032;49.484;11.112;2023-05-15T04:35:36;14.90;;;10.13;;
6007;SDS011;3032;49.484;11.112;2023-05-15T04:38:02;11.93;;;10.00;;
6007;SDS011;3032;49.484;11.112;2023-05-15T04:40:28;12.10;;;10.07;;
6007;SDS011;3032;49.484;11.112;2023-05-15T04:42:54;9.67;;;8.77;;
6007;SDS011;3032;49.484;11.112;2023-05-15T04:45:19;10.70;;;9.60;;
6007;SDS011;3032;49.484;11.112;2023-05-15T04:47:45;10.00;;;8.50;;
6007;SDS011;3032;49.484;11.112;2023-05-15T04:50:11;10.30;;;8.90;;
6007;SDS011;3032;49.484;11.112;2023-05-15T04:52:36;9.87;;;8.90;;
6007;SDS011;3032;49.484;11.112;2023-05-15T04:55:02;11.50;;;10.30;;
6007;SDS011;3032;49.484;11.112;2023-05-15T04:57:28;14.83;;;10.43;;
6007;SDS011;3032;49.484;11.112;2023-05-15T04:59:54;13.90;;;9.73;;
6007;SDS011;3032;49.484;11.112;2023-05-15T05:02:20;11.03;;;9.67;;
6007;SDS011;3032;49.484;11.112;2023-05-15T05:04:49;10.07;;;9.00;;
6007;SDS011;3032;49.484;11.112;2023-05-15T05:07:15;11.73;;;10.27;;
6007;SDS011;3032;49.484;11.112;2023-05-15T05:09:41;13.33;;;9.87;;
6007;SDS011;3032;49.484;11.112;2023-05-15T05:12:06;12.60;;;10.10;;
6007;SDS011;3032;49.484;11.112;2023-05-15T05:14:33;13.23;;;9.63;;
6007;SDS011;3032;49.484;11.112;2023-05-15T05:16:58;11.00;;;9.57;;
6007;SDS011;3032;49.484;11.112;2023-05-15T05:19:24;11.43;;;10.20;;
6007;SDS011;3032;49.484;11.112;2023-05-15T05:21:52;9.45;;;8.45;;
6007;SDS011;3032;49.484;11.112;2023-05-15T05:24:17;13.70;;;8.03;;
6007;SDS011;3032;49.484;11.112;2023-05-15T05:26:43;9.73;;;8.87;;
6007;SDS011;3032;49.484;11.112;2023-05-15T05:29:09;9.30;;;7.63;;
6007;SDS011;3032;49.484;11.112;2023-05-15T05:31:35;8.45;;;7.35;;
6007;SDS011;3032;49.484;11.112;2023-05-15T05:34:00;12.10;;;9.40;;
6007;SDS011;3032;49.484;11.112;2023-05-15T05:36:26;11.30;;;8.60;;
6007;SDS011;3032;49.484;11.112;2023-05-15T05:38:52;10.60;;;9.60;;
6007;SDS011;3032;49.484;11.112;2023-05-15T05:41:17;11.20;;;10.20;;
6007;SDS011;3032;49.484;11.112;2023-05-15T05:43:43;11.30;;;10.17;;
6007;SDS011;3032;49.484;11.112;2023-05-15T05:46:09;12.07;;;11.07;;
6007;SDS011;3032;49.484;11.112;2023-05-15T05:48:34;12.27;;;11.07;;
6007;SDS011;3032;49.484;11.112;2023-05-15T05:51:00;11.63;;;10.63;;
6007;SDS011;3032;49.484;11.112;2023-05-15T05:53:26;11.57;;;10.13;;
6007;SDS011;3032;49.484;11.112;2023-05-15T05:55:51;12.53;;;10.93;;
6007;SDS011;3032;49.484;11.112;2023-05-15T05:58:18;11.63;;;9.20;;
6007;SDS011;3032;49.484;11.112;2023-05-15T06:00:43;11.03;;;10.03;;
6007;SDS011;3032;49.484;11.112;2023-05-15T06:03:09;11.50;;;10.50;;
6007;SDS011;3032;49.484;11.112;2023-05-15T06:05:35;10.10;;;9.07;;
6007;SDS011;3032;49.484;11.112;2023-05-15T06:08:01;10.00;;;8.90;;
6007;SDS011;3032;49.484;11.112;2023-05-15T06:10:28;10.70;;;9.60;;
6007;SDS011;3032;49.484;11.112;2023-05-15T06:12:54;9.27;;;8.05;;
6007;SDS011;3032;49.484;11.112;2023-05-15T06:15:20;11.20;;;10.20;;
6007;SDS011;3032;49.484;11.112;2023-05-15T06:17:45;10.60;;;9.60;;
6007;SDS011;3032;49.484;11.112;2023-05-15T06:20:11;10.30;;;9.47;;
6007;SDS011;3032;49.484;11.112;2023-05-15T06:22:37;10.57;;;9.30;;
6007;SDS011;3032;49.484;11.112;2023-05-15T06:25:03;10.17;;;9.37;;
6007;SDS011;3032;49.484;11.112;2023-05-15T06:27:30;9.25;;;8.35;;
6007;SDS011;3032;49.484;11.112;2023-05-15T06:29:56;8.95;;;8.15;;
6007;SDS011;3032;49.484;11.112;2023-05-15T06:32:22;9.77;;;8.90;;
6007;SDS011;3032;49.484;11.112;2023-05-15T06:34:47;8.80;;;8.00;;
6007;SDS011;3032;49.484;11.112;2023-05-15T06:37:13;9.80;;;7.40;;
6007;SDS011;3032;49.484;11.112;2023-05-15T06:39:38;8.43;;;7.77;;
6007;SDS011;3032;49.484;11.112;2023-05-15T06:42:05;9.40;;;8.60;;
6007;SDS011;3032;49.484;11.112;2023-05-15T06:44:30;9.43;;;8.53;;
6007;SDS011;3032;49.484;11.112;2023-05-15T06:46:56;8.23;;;7.53;;
6007;SDS011;3032;49.484;11.112;2023-05-15T06:49:22;8.63;;;7.73;;
6007;SDS011;3032;49.484;11.112;2023-05-15T06:51:48;8.57;;;7.50;;
6007;SDS011;3032;49.484;11.112;2023-05-15T06:54:14;8.05;;;7.45;;
6007;SDS011;3032;49.484;11.112;2023-05-15T06:56:40;8.67;;;7.97;;
6007;SDS011;3032;49.484;11.112;2023-05-15T06:59:06;7.63;;;6.87;;
6007;SDS011;3032;49.484;11.112;2023-05-15T07:01:31;7.77;;;6.97;;
6007;SDS011;3032;49.484;11.112;2023-05-15T07:03:57;7.03;;;6.47;;
6007;SDS011;3032;49.484;11.112;2023-05-15T07:06:22;7.80;;;7.20;;
6007;SDS011;3032;49.484;11.112;2023-05-15T07:08:49;7.40;;;6.80;;
6007;SDS011;3032;49.484;11.112;2023-05-15T07:11:15;8.87;;;8.10;;
6007;SDS011;3032;49.484;11.112;2023-05-15T07:13:40;9.03;;;8.33;;
6007;SDS011;3032;49.484;11.112;2023-05-15T07:16:06;7.30;;;6.80;;
6007;SDS011;3032;49.484;11.112;2023-05-15T07:18:31;7.77;;;7.07;;
6007;SDS011;3032;49.484;11.112;2023-05-15T07:20:57;6.50;;;6.00;;
6007;SDS011;3032;49.484;11.112;2023-05-15T07:23:23;8.50;;;7.80;;
6007;SDS011;3032;49.484;11.112;2023-05-15T07:25:48;7.27;;;6.57;;
6007;SDS011;3032;49.484;11.112;2023-05-15T07:28:14;6.97;;;6.13;;
6007;SDS011;3032;49.484;11.112;2023-05-15T07:30:39;8.20;;;7.60;;
6007;SDS011;3032;49.484;11.112;2023-05-15T07:33:05;6.50;;;6.10;;
6007;SDS011;3032;49.484;11.112;2023-05-15T07:35:30;6.57;;;6.17;;
6007;SDS011;3032;49.484;11.112;2023-05-15T07:37:56;5.80;;;5.30;;
6007;SDS011;3032;49.484;11.112;2023-05-15T07:40:22;6.57;;;6.17;;
6007;SDS011;3032;49.484;11.112;2023-05-15T07:42:47;6.30;;;5.90;;
6007;SDS011;3032;49.484;11.112;2023-05-15T07:45:13;6.30;;;5.80;;
6007;SDS011;3032;49.484;11.112;2023-05-15T07:50:10;6.45;;;6.00;;
6007;SDS011;3032;49.484;11.112;2023-05-15T07:52:35;6.40;;;5.90;;
6007;SDS011;3032;49.484;11.112;2023-05-15T07:55:01;6.93;;;6.10;;
6007;SDS011;3032;49.484;11.112;2023-05-15T07:57:27;6.13;;;5.63;;
6007;SDS011;3032;49.484;11.112;2023-05-15T07:59:53;5.77;;;5.20;;
6007;SDS011;3032;49.484;11.112;2023-05-15T08:02:18;5.60;;;5.20;;
6007;SDS011;3032;49.484;11.112;2023-05-15T08:04:44;6.50;;;6.00;;
6007;SDS011;3032;49.484;11.112;2023-05-15T08:07:09;6.37;;;5.93;;
6007;SDS011;3032;49.484;11.112;2023-05-15T08:09:35;6.90;;;6.30;;
6007;SDS011;3032;49.484;11.112;2023-05-15T08:12:13;7.13;;;6.53;;
6007;SDS011;3032;49.484;11.112;2023-05-15T08:14:41;6.30;;;5.72;;
6007;SDS011;3032;49.484;11.112;2023-05-15T08:17:07;5.53;;;5.13;;
6007;SDS011;3032;49.484;11.112;2023-05-15T08:19:32;6.03;;;5.60;;
6007;SDS011;3032;49.484;11.112;2023-05-15T08:21:58;5.90;;;5.40;;
6007;SDS011;3032;49.484;11.112;2023-05-15T08:24:23;14.83;;;5.73;;
6007;SDS011;3032;49.484;11.112;2023-05-15T08:26:49;7.03;;;5.10;;
6007;SDS011;3032;49.484;11.112;2023-05-15T08:29:14;4.50;;;4.20;;
6007;SDS011;3032;49.484;11.112;2023-05-15T08:31:40;5.90;;;4.10;;
6007;SDS011;3032;49.484;11.112;2023-05-15T08:34:06;4.33;;;4.03;;
6007;SDS011;3032;49.484;11.112;2023-05-15T08:36:31;3.80;;;3.60;;
6007;SDS011;3032;49.484;11.112;2023-05-15T08:38:57;4.20;;;4.00;;
6007;SDS011;3032;49.484;11.112;2023-05-15T08:41:33;3.87;;;3.60;;
6007;SDS011;3032;49.484;11.112;2023-05-15T08:44:07;4.22;;;4.03;;
6007;SDS011;3032;49.484;11.112;2023-05-15T08:46:34;4.50;;;4.10;;
6007;SDS011;3032;49.484;11.112;2023-05-15T08:49:01;4.23;;;3.93;;
6007;SDS011;3032;49.484;11.112;2023-05-15T08:51:35;3.80;;;3.50;;
6007;SDS011;3032;49.484;11.112;2023-05-15T08:54:02;5.05;;;3.85;;
6007;SDS011;3032;49.484;11.112;2023-05-15T08:56:27;3.60;;;3.40;;
6007;SDS011;3032;49.484;11.112;2023-05-15T08:58:53;3.70;;;3.50;;
6007;SDS011;3032;49.484;11.112;2023-05-15T09:01:19;3.73;;;3.53;;
6007;SDS011;3032;49.484;11.112;2023-05-15T09:03:44;3.93;;;3.63;;
6007;SDS011;3032;49.484;11.112;2023-05-15T09:06:11;3.63;;;3.42;;
6007;SDS011;3032;49.484;11.112;2023-05-15T09:08:37;3.88;;;3.58;;
6007;SDS011;3032;49.484;11.112;2023-05-15T09:11:05;3.60;;;3.50;;
6007;SDS011;3032;49.484;11.112;2023-05-15T09:13:31;3.70;;;3.40;;
6007;SDS011;3032;49.484;11.112;2023-05-15T09:15:57;3.50;;;3.40;;
6007;SDS011;3032;49.484;11.112;2023-05-15T09:18:23;4.00;;;3.80;;
6007;SDS011;3032;49.484;11.112;2023-05-15T09:20:50;4.40;;;4.10;;
6007;SDS011;3032;49.484;11.112;2023-05-15T09:23:23;6.10;;;4.22;;
6007;SDS011;3032;49.484;11.112;2023-05-15T09:25:50;4.00;;;3.80;;
6007;SDS011;3032;49.484;11.112;2023-05-15T09:28:30;3.45;;;3.33;;
6007;SDS011;3032;49.484;11.112;2023-05-15T09:30:59;3.90;;;3.70;;
6007;SDS011;3032;49.484;11.112;2023-05-15T09:33:32;3.75;;;3.25;;
6007;SDS011;3032;49.484;11.112;2023-05-15T09:36:02;4.10;;;3.80;;
6007;SDS011;3032;49.484;11.112;2023-05-15T09:38:31;3.58;;;3.20;;
6007;SDS011;3032;49.484;11.112;2023-05-15T09:41:01;2.95;;;2.85;;
6007;SDS011;3032;49.484;11.112;2023-05-15T09:43:28;2.70;;;2.60;;
6007;SDS011;3032;49.484;11.112;2023-05-15T09:45:54;3.10;;;2.90;;
6007;SDS011;3032;49.484;11.112;2023-05-15T09:48:20;3.00;;;2.90;;
6007;SDS011;3032;49.484;11.112;2023-05-15T09:50:46;3.00;;;2.80;;
6007;SDS011;3032;49.484;11.112;2023-05-15T09:53:12;3.95;;;3.20;;
6007;SDS011;3032;49.484;11.112;2023-05-15T09:55:38;7.53;;;3.10;;
6007;SDS011;3032;49.484;11.112;2023-05-15T09:58:07;4.90;;;2.80;;
6007;SDS011;3032;49.484;11.112;2023-05-15T10:00:35;13.30;;;5.28;;
6007;SDS011;3032;49.484;11.112;2023-05-15T10:03:02;263.05;;;23.08;;
6007;SDS011;3032;49.484;11.112;2023-05-15T10:05:28;500.05;;;35.45;;
6007;SDS011;3032;49.484;11.112;2023-05-15T10:07:54;169.15;;;15.90;;
6007;SDS011;3032;49.484;11.112;2023-05-15T10:10:21;184.18;;;18.35;;
6007;SDS011;3032;49.484;11.112;2023-05-15T10:12:48;724.47;;;50.67;;
6007;SDS011;3032;49.484;11.112;2023-05-15T10:15:15;148.10;;;13.48;;
6007;SDS011;3032;49.484;11.112;2023-05-15T10:17:42;8.98;;;4.68;;
6007;SDS011;3032;49.484;11.112;2023-05-15T10:20:08;227.20;;;18.75;;
6007;SDS011;3032;49.484;11.112;2023-05-15T10:22:37;12.27;;;5.72;;
6007;SDS011;3032;49.484;11.112;2023-05-15T10:25:09;5.00;;;4.47;;
6007;SDS011;3032;49.484;11.112;2023-05-15T10:27:42;4.75;;;4.03;;
6007;SDS011;3032;49.484;11.112;2023-05-15T10:30:09;10.93;;;5.00;;
6007;SDS011;3032;49.484;11.112;2023-05-15T10:32:35;22.38;;;5.88;;
6007;SDS011;3032;49.484;11.112;2023-05-15T10:35:03;4.95;;;4.20;;
6007;SDS011;3032;49.484;11.112;2023-05-15T10:37:29;5.28;;;4.20;;
6007;SDS011;3032;49.484;11.112;2023-05-15T10:39:55;4.00;;;3.75;;
6007;SDS011;3032;49.484;11.112;2023-05-15T10:42:35;4.22;;;3.83;;
6007;SDS011;3032;49.484;11.112;2023-05-15T10:45:01;5.05;;;4.65;;
6007;SDS011;3032;49.484;11.112;2023-05-15T10:47:30;3.55;;;3.35;;
6007;SDS011;3032;49.484;11.112;2023-05-15T10:49:58;4.93;;;4.63;;
6007;SDS011;3032;49.484;11.112;2023-05-15T10:52:24;5.70;;;5.23;;
6007;SDS011;3032;49.484;11.112;2023-05-15T10:54:51;4.80;;;4.50;;
6007;SDS011;3032;49.484;11.112;2023-05-15T10:57:17;4.72;;;4.43;;
6007;SDS011;3032;49.484;11.112;2023-05-15T10:59:45;5.30;;;4.80;;
6007;SDS011;3032;49.484;11.112;2023-05-15T11:02:23;5.73;;;5.10;;
6007;SDS011;3032;49.484;11.112;2023-05-15T11:04:58;4.57;;;4.28;;
6007;SDS011;3032;49.484;11.112;2023-05-15T11:07:25;4.97;;;4.53;;
6007;SDS011;3032;49.484;11.112;2023-05-15T11:09:54;6.15;;;4.90;;
6007;SDS011;3032;49.484;11.112;2023-05-15T11:12:21;4.90;;;4.57;;
6007;SDS011;3032;49.484;11.112;2023-05-15T11:17:18;3.80;;;3.60;;
6007;SDS011;3032;49.484;11.112;2023-05-15T11:30:33;3.80;;;3.60;;
6007;SDS011;3032;49.484;11.112;2023-05-15T11:35:21;4.55;;;4.15;;
6007;SDS011;3032;49.484;11.112;2023-05-15T11:37:48;4.35;;;4.15;;
6007;SDS011;3032;49.484;11.112;2023-05-15T11:40:19;5.05;;;4.65;;
6007;SDS011;3032;49.484;11.112;2023-05-15T11:45:41;3.80;;;3.60;;
6007;SDS011;3032;49.484;11.112;2023-05-15T11:48:11;6.85;;;4.72;;
6007;SDS011;3032;49.484;11.112;2023-05-15T11:50:38;3.70;;;3.60;;
6007;SDS011;3032;49.484;11.112;2023-05-15T11:53:05;3.67;;;3.45;;
6007;SDS011;3032;49.484;11.112;2023-05-15T11:55:33;3.83;;;3.60;;
6007;SDS011;3032;49.484;11.112;2023-05-15T11:58:00;3.75;;;3.55;;
6007;SDS011;3032;49.484;11.112;2023-05-15T12:00:26;3.17;;;3.08;;
6007;SDS011;3032;49.484;11.112;2023-05-15T12:02:52;3.80;;;3.50;;
6007;SDS011;3032;49.484;11.112;2023-05-15T12:05:17;3.47;;;3.23;;
6007;SDS011;3032;49.484;11.112;2023-05-15T12:07:43;3.50;;;3.30;;
6007;SDS011;3032;49.484;11.112;2023-05-15T12:10:09;3.13;;;2.90;;
6007;SDS011;3032;49.484;11.112;2023-05-15T12:12:40;2.85;;;2.75;;
6007;SDS011;3032;49.484;11.112;2023-05-15T12:15:13;3.35;;;3.15;;
6007;SDS011;3032;49.484;11.112;2023-05-15T12:17:40;3.08;;;2.97;;
6007;SDS011;3032;49.484;11.112;2023-05-15T12:20:15;2.80;;;2.70;;
6007;SDS011;3032;49.484;11.112;2023-05-15T12:22:42;3.50;;;3.20;;
6007;SDS011;3032;49.484;11.112;2023-05-15T12:25:09;3.00;;;2.80;;
6007;SDS011;3032;49.484;11.112;2023-05-15T12:27:35;3.08;;;2.88;;
6007;SDS011;3032;49.484;11.112;2023-05-15T12:30:03;3.80;;;3.60;;
6007;SDS011;3032;49.484;11.112;2023-05-15T12:32:30;3.85;;;3.50;;
6007;SDS011;3032;49.484;11.112;2023-05-15T12:34:58;4.68;;;3.97;;
6007;SDS011;3032;49.484;11.112;2023-05-15T12:37:24;4.50;;;4.10;;
6007;SDS011;3032;49.484;11.112;2023-05-15T12:39:54;6.30;;;3.83;;
6007;SDS011;3032;49.484;11.112;2023-05-15T12:42:21;4.68;;;4.30;;
6007;SDS011;3032;49.484;11.112;2023-05-15T12:44:53;5.65;;;4.75;;
6007;SDS011;3032;49.484;11.112;2023-05-15T12:47:26;6.25;;;4.88;;
6007;SDS011;3032;49.484;11.112;2023-05-15T12:49:58;4.80;;;4.40;;
6007;SDS011;3032;49.484;11.112;2023-05-15T12:52:27;4.45;;;4.05;;
6007;SDS011;3032;49.484;11.112;2023-05-15T12:54:53;5.55;;;4.60;;
6007;SDS011;3032;49.484;11.112;2023-05-15T12:57:18;6.97;;;4.67;;
6007;SDS011;3032;49.484;11.112;2023-05-15T12:59:44;8.75;;;4.70;;
6007;SDS011;3032;49.484;11.112;2023-05-15T13:02:11;4.95;;;4.53;;
6007;SDS011;3032;49.484;11.112;2023-05-15T13:04:37;6.30;;;4.93;;
6007;SDS011;3032;49.484;11.112;2023-05-15T13:07:03;5.93;;;4.07;;
6007;SDS011;3032;49.484;11.112;2023-05-15T13:09:28;4.53;;;4.18;;
6007;SDS011;3032;49.484;11.112;2023-05-15T13:11:55;5.10;;;4.30;;
6007;SDS011;3032;49.484;11.112;2023-05-15T13:14:21;4.38;;;4.07;;
6007;SDS011;3032;49.484;11.112;2023-05-15T13:16:51;4.20;;;3.75;;
6007;SDS011;3032;49.484;11.112;2023-05-15T13:19:16;5.00;;;4.60;;
6007;SDS011;3032;49.484;11.112;2023-05-15T13:21:42;4.10;;;3.90;;
6007;SDS011;3032;49.484;11.112;2023-05-15T13:24:09;4.90;;;4.47;;
6007;SDS011;3032;49.484;11.112;2023-05-15T13:26:35;4.03;;;3.77;;
6007;SDS011;3032;49.484;11.112;2023-05-15T13:29:00;9.97;;;4.00;;
6007;SDS011;3032;49.484;11.112;2023-05-15T13:31:26;3.90;;;3.53;;
6007;SDS011;3032;49.484;11.112;2023-05-15T13:33:52;3.50;;;3.30;;
6007;SDS011;3032;49.484;11.112;2023-05-15T13:36:17;4.00;;;3.60;;
6007;SDS011;3032;49.484;11.112;2023-05-15T13:38:43;5.13;;;3.00;;
6007;SDS011;3032;49.484;11.112;2023-05-15T13:41:08;3.60;;;3.40;;
6007;SDS011;3032;49.484;11.112;2023-05-15T13:43:34;5.17;;;3.33;;
6007;SDS011;3032;49.484;11.112;2023-05-15T13:45:59;3.13;;;2.93;;
6007;SDS011;3032;49.484;11.112;2023-05-15T13:48:25;3.43;;;3.23;;
6007;SDS011;3032;49.484;11.112;2023-05-15T13:50:51;5.80;;;3.27;;
6007;SDS011;3032;49.484;11.112;2023-05-15T13:53:17;3.00;;;2.90;;
6007;SDS011;3032;49.484;11.112;2023-05-15T13:55:43;4.50;;;3.50;;
6007;SDS011;3032;49.484;11.112;2023-05-15T13:58:10;4.03;;;3.00;;
6007;SDS011;3032;49.484;11.112;2023-05-15T14:00:38;3.90;;;3.30;;
6007;SDS011;3032;49.484;11.112;2023-05-15T14:03:06;2.70;;;2.60;;
6007;SDS011;3032;49.484;11.112;2023-05-15T14:05:31;3.47;;;3.20;;
6007;SDS011;3032;49.484;11.112;2023-05-15T14:07:57;4.50;;;3.10;;
6007;SDS011;3032;49.484;11.112;2023-05-15T14:10:23;4.80;;;3.97;;
6007;SDS011;3032;49.484;11.112;2023-05-15T14:12:49;3.40;;;3.20;;
6007;SDS011;3032;49.484;11.112;2023-05-15T14:15:15;3.53;;;3.33;;
6007;SDS011;3032;49.484;11.112;2023-05-15T14:17:40;3.80;;;3.43;;
6007;SDS011;3032;49.484;11.112;2023-05-15T14:20:07;3.75;;;3.45;;
6007;SDS011;3032;49.484;11.112;2023-05-15T14:22:36;3.88;;;3.58;;
6007;SDS011;3032;49.484;11.112;2023-05-15T14:25:03;3.67;;;3.08;;
6007;SDS011;3032;49.484;11.112;2023-05-15T14:27:29;4.28;;;3.42;;
6007;SDS011;3032;49.484;11.112;2023-05-15T14:29:55;3.83;;;3.43;;
6007;SDS011;3032;49.484;11.112;2023-05-15T14:32:21;4.83;;;3.30;;
6007;SDS011;3032;49.484;11.112;2023-05-15T14:34:47;4.68;;;4.30;;
6007;SDS011;3032;49.484;11.112;2023-05-15T14:37:13;5.43;;;4.10;;
6007;SDS011;3032;49.484;11.112;2023-05-15T14:39:39;3.90;;;3.70;;
6007;SDS011;3032;49.484;11.112;2023-05-15T14:42:05;4.07;;;3.43;;
6007;SDS011;3032;49.484;11.112;2023-05-15T14:44:31;5.67;;;3.97;;
6007;SDS011;3032;49.484;11.112;2023-05-15T14:47:03;4.97;;;3.80;;
6007;SDS011;3032;49.484;11.112;2023-05-15T14:49:31;4.30;;;3.60;;
6007;SDS011;3032;49.484;11.112;2023-05-15T14:51:56;4.20;;;3.90;;
6007;SDS011;3032;49.484;11.112;2023-05-15T14:54:22;4.70;;;4.30;;
6007;SDS011;3032;49.484;11.112;2023-05-15T14:56:48;4.40;;;4.10;;
6007;SDS011;3032;49.484;11.112;2023-05-15T14:59:13;4.60;;;3.60;;
6007;SDS011;3032;49.484;11.112;2023-05-15T15:01:39;4.40;;;4.10;;
6007;SDS011;3032;49.484;11.112;2023-05-15T15:04:04;4.90;;;4.50;;
6007;SDS011;3032;49.484;11.112;2023-05-15T15:06:30;4.60;;;4.17;;
6007;SDS011;3032;49.484;11.112;2023-05-15T15:08:55;4.33;;;3.93;;
6007;SDS011;3032;49.484;11.112;2023-05-15T15:11:21;4.50;;;4.20;;
6007;SDS011;3032;49.484;11.112;2023-05-15T15:13:47;4.43;;;4.03;;
6007;SDS011;3032;49.484;11.112;2023-05-15T15:16:12;5.47;;;4.97;;
6007;SDS011;3032;49.484;11.112;2023-05-15T15:18:38;4.33;;;3.87;;